createdAt,value
2023-04-27T00:02:09.952Z,102212.69
2023-04-27T00:04:37.544Z,102208.34
2023-04-27T00:07:04.173Z,102218.72
2023-04-27T00:09:30.652Z,102214.44
2023-04-27T00:11:57.052Z,102221.34
2023-04-27T00:14:23.574Z,102221.41
2023-04-27T00:16:50.157Z,102224.91
2023-04-27T00:19:16.864Z,102217.19
2023-04-27T00:21:43.316Z,102213.78
2023-04-27T00:24:09.780Z,102220.66
2023-04-27T00:26:36.361Z,102222.38
2023-04-27T00:29:02.810Z,102224.16
2023-04-27T00:31:29.287Z,102218.16
2023-04-27T00:33:55.863Z,102219.00
2023-04-27T00:36:23.231Z,102207.78
2023-04-27T00:38:51.608Z,102209.50
2023-04-27T00:41:18.117Z,102206.97
2023-04-27T00:43:45.923Z,102208.72
2023-04-27T00:46:13.697Z,102208.81
2023-04-27T00:48:41.140Z,102213.97
2023-04-27T00:51:07.611Z,102221.75
2023-04-27T00:53:35.941Z,102223.50
2023-04-27T00:56:03.486Z,102219.19
2023-04-27T00:58:30.227Z,102218.38
2023-04-27T01:00:57.006Z,102217.53
2023-04-27T01:03:23.660Z,102222.69
2023-04-27T01:05:50.512Z,102210.66
2023-04-27T01:08:23.192Z,102203.75
2023-04-27T01:10:50.663Z,102207.19
2023-04-27T01:13:18.184Z,102203.75
2023-04-27T01:15:45.348Z,102203.81
2023-04-27T01:18:11.949Z,102196.97
2023-04-27T01:20:38.565Z,102200.41
2023-04-27T01:23:05.067Z,102203.00
2023-04-27T01:25:31.896Z,102206.44
2023-04-27T01:27:58.308Z,102205.59
2023-04-27T01:30:25.058Z,102211.63
2023-04-27T01:32:54.197Z,102217.63
2023-04-27T01:35:22.687Z,102218.50
2023-04-27T01:37:50.293Z,102216.78
2023-04-27T01:40:16.921Z,102208.16
2023-04-27T01:42:43.374Z,102208.16
2023-04-27T01:45:11.015Z,102203.84
2023-04-27T01:47:37.537Z,102200.41
2023-04-27T01:50:04.240Z,102195.31
2023-04-27T01:52:30.695Z,102191.88
2023-04-27T01:54:57.263Z,102197.03
2023-04-27T01:57:23.747Z,102191.03
2023-04-27T01:59:50.371Z,102187.59
2023-04-27T02:02:16.775Z,102188.50
2023-04-27T02:04:43.728Z,102183.34
2023-04-27T02:07:10.937Z,102190.25
2023-04-27T02:09:37.569Z,102192.81
2023-04-27T02:12:04.218Z,102192.81
2023-04-27T02:14:30.706Z,102200.56
2023-04-27T02:16:57.144Z,102191.09
2023-04-27T02:19:23.590Z,102199.66
2023-04-27T02:21:50.766Z,102202.25
2023-04-27T02:24:18.224Z,102197.13
2023-04-27T02:26:44.685Z,102193.69
2023-04-27T02:29:11.490Z,102194.56
2023-04-27T02:31:38.605Z,102200.56
2023-04-27T02:34:05.060Z,102195.44
2023-04-27T02:36:32.341Z,102187.69
2023-04-27T02:39:00.556Z,102187.69
2023-04-27T02:41:28.480Z,102186.84
2023-04-27T02:43:54.848Z,102189.41
2023-04-27T02:46:21.354Z,102177.38
2023-04-27T02:48:47.853Z,102182.53
2023-04-27T02:51:14.321Z,102178.28
2023-04-27T02:53:41.925Z,102173.13
2023-04-27T02:56:10.116Z,102173.09
2023-04-27T02:58:37.150Z,102178.25
2023-04-27T03:01:03.700Z,102176.56
2023-04-27T03:03:30.278Z,102177.38
2023-04-27T03:05:57.684Z,102179.09
2023-04-27T03:08:26.234Z,102188.56
2023-04-27T03:10:52.688Z,102183.41
2023-04-27T03:13:19.235Z,102185.09
2023-04-27T03:15:47.007Z,102191.13
2023-04-27T03:18:13.461Z,102191.97
2023-04-27T03:20:45.146Z,102199.69
2023-04-27T03:23:12.571Z,102197.13
2023-04-27T03:25:39.056Z,102195.41
2023-04-27T03:28:05.577Z,102199.66
2023-04-27T03:30:31.971Z,102197.09
2023-04-27T03:32:58.637Z,102204.81
2023-04-27T03:35:28.100Z,102193.69
2023-04-27T03:37:54.557Z,102198.84
2023-04-27T03:40:21.696Z,102201.41
2023-04-27T03:42:50.661Z,102200.53
2023-04-27T03:45:19.142Z,102192.81
2023-04-27T03:47:45.704Z,102195.38
2023-04-27T03:50:15.251Z,102197.97
2023-04-27T03:52:41.862Z,102197.09
2023-04-27T03:55:14.525Z,102200.53
2023-04-27T03:57:41.512Z,102200.53
2023-04-27T04:00:12.113Z,102197.06
2023-04-27T04:02:42.152Z,102191.03
2023-04-27T04:05:09.246Z,102197.06
2023-04-27T04:07:35.999Z,102198.75
2023-04-27T04:10:03.474Z,102197.91
2023-04-27T04:12:30.512Z,102198.78
2023-04-27T04:14:59.680Z,102204.78
2023-04-27T04:17:26.490Z,102203.06
2023-04-27T04:19:52.968Z,102197.94
2023-04-27T04:22:21.372Z,102206.50
2023-04-27T04:24:47.893Z,102209.94
2023-04-27T04:27:14.360Z,102211.69
2023-04-27T04:29:40.834Z,102212.50
2023-04-27T04:32:07.471Z,102214.22
2023-04-27T04:34:34.376Z,102222.84
2023-04-27T04:37:00.795Z,102221.13
2023-04-27T04:39:31.824Z,102221.13
2023-04-27T04:41:58.289Z,102225.44
2023-04-27T04:44:24.876Z,102223.72
2023-04-27T04:46:51.888Z,102229.75
2023-04-27T04:49:18.438Z,102236.63
2023-04-27T04:51:45.580Z,102232.34
2023-04-27T04:54:12.340Z,102232.34
2023-04-27T04:56:44.371Z,102232.34
2023-04-27T04:59:11.225Z,102231.50
2023-04-27T05:01:37.821Z,102228.06
2023-04-27T05:04:04.594Z,102227.22
2023-04-27T05:06:32.291Z,102229.78
2023-04-27T05:08:58.726Z,102223.72
2023-04-27T05:11:25.399Z,102219.53
2023-04-27T05:13:51.891Z,102217.97
2023-04-27T05:16:18.446Z,102218.31
2023-04-27T05:18:45.039Z,102216.50
2023-04-27T05:21:20.620Z,102218.38
2023-04-27T05:23:47.022Z,102205.78
2023-04-27T05:26:17.061Z,102208.84
2023-04-27T05:28:43.854Z,102211.06
2023-04-27T05:31:10.837Z,102202.63
2023-04-27T05:33:37.321Z,102207.69
2023-04-27T05:36:04.091Z,102211.13
2023-04-27T05:38:30.527Z,102208.88
2023-04-27T05:40:58.988Z,102216.59
2023-04-27T05:43:26.189Z,102218.34
2023-04-27T05:45:53.473Z,102207.31
2023-04-27T05:48:21.147Z,102215.09
2023-04-27T05:50:48.622Z,102221.63
2023-04-27T05:53:15.067Z,102208.41
2023-04-27T05:55:42.828Z,102209.09
2023-04-27T05:58:09.491Z,102214.84
2023-04-27T06:00:38.314Z,102208.13
2023-04-27T06:03:05.103Z,102211.97
2023-04-27T06:05:31.804Z,102203.88
2023-04-27T06:07:58.432Z,102213.19
2023-04-27T06:10:24.886Z,102213.81
2023-04-27T06:12:51.423Z,102211.69
2023-04-27T06:15:18.037Z,102210.19
2023-04-27T06:17:46.124Z,102213.53
2023-04-27T06:20:15.348Z,102218.34
2023-04-27T06:22:41.882Z,102209.91
2023-04-27T06:25:08.750Z,102217.00
2023-04-27T06:27:35.461Z,102206.59
2023-04-27T06:30:04.818Z,102214.44
2023-04-27T06:32:32.127Z,102209.91
2023-04-27T06:35:04.528Z,102217.09
2023-04-27T06:37:33.338Z,102208.69
2023-04-27T06:39:59.929Z,102210.03
2023-04-27T06:42:27.297Z,102218.53
2023-04-27T06:44:56.386Z,102217.38
2023-04-27T06:47:23.745Z,102213.00
2023-04-27T06:49:50.894Z,102207.06
2023-04-27T06:52:17.415Z,102213.94
2023-04-27T06:54:43.882Z,102214.97
2023-04-27T06:57:10.798Z,102216.81
2023-04-27T06:59:37.224Z,102217.25
2023-04-27T07:02:03.625Z,102218.50
2023-04-27T07:04:30.257Z,102213.59
2023-04-27T07:06:57.252Z,102223.16
2023-04-27T07:09:27.618Z,102225.47
2023-04-27T07:11:55.227Z,102220.50
2023-04-27T07:14:22.282Z,102224.09
2023-04-27T07:16:48.693Z,102219.63
2023-04-27T07:19:15.415Z,102229.59
2023-04-27T07:21:41.927Z,102232.78
2023-04-27T07:24:08.555Z,102230.94
2023-04-27T07:26:35.048Z,102234.28
2023-04-27T07:29:04.220Z,102231.59
2023-04-27T07:31:35.512Z,102223.38
2023-04-27T07:34:03.056Z,102227.44
2023-04-27T07:36:29.462Z,102224.63
2023-04-27T07:38:58.704Z,102214.22
2023-04-27T07:41:25.215Z,102216.53
2023-04-27T07:43:52.402Z,102209.53
2023-04-27T07:46:19.048Z,102217.03
2023-04-27T07:48:45.584Z,102212.47
2023-04-27T07:51:16.172Z,102214.66
2023-04-27T07:53:42.690Z,102223.50
2023-04-27T07:56:10.122Z,102219.88
2023-04-27T07:58:37.946Z,102218.03
2023-04-27T08:01:04.476Z,102217.09
2023-04-27T08:03:31.651Z,102212.25
2023-04-27T08:05:58.818Z,102214.59
2023-04-27T08:08:25.563Z,102216.91
2023-04-27T08:10:52.014Z,102215.22
2023-04-27T08:13:18.543Z,102213.75
2023-04-27T08:15:44.958Z,102216.19
2023-04-27T08:18:11.554Z,102221.94
2023-04-27T08:20:38.034Z,102214.72
2023-04-27T08:23:04.470Z,102215.47
2023-04-27T08:25:32.215Z,102209.00
2023-04-27T08:27:58.654Z,102208.53
2023-04-27T08:30:25.269Z,102214.28
2023-04-27T08:32:51.773Z,102216.25
2023-04-27T08:35:18.352Z,102217.19
2023-04-27T08:37:45.547Z,102211.38
2023-04-27T08:40:12.375Z,102205.06
2023-04-27T08:42:41.980Z,102196.66
2023-04-27T08:45:09.132Z,102206.16
2023-04-27T08:47:42.880Z,102213.03
2023-04-27T08:50:12.238Z,102205.41
2023-04-27T08:52:38.756Z,102206.59
2023-04-27T08:55:07.422Z,102202.84
2023-04-27T08:57:33.958Z,102204.25
2023-04-27T09:00:01.031Z,102209.03
2023-04-27T09:02:29.660Z,102208.63
2023-04-27T09:04:56.933Z,102204.06
2023-04-27T09:07:23.740Z,102199.72
2023-04-27T09:09:50.484Z,102209.03
2023-04-27T09:12:21.703Z,102203.66
2023-04-27T09:14:58.518Z,102201.75
2023-04-27T09:17:30.139Z,102200.56
2023-04-27T09:20:09.044Z,102199.09
2023-04-27T09:22:52.869Z,102196.66
2023-04-27T09:25:31.395Z,102190.31
2023-04-27T09:27:59.610Z,102192.69
2023-04-27T09:30:29.648Z,102195.59
2023-04-27T09:33:04.258Z,102180.22
2023-04-27T09:35:33.144Z,102178.13
2023-04-27T09:38:03.102Z,102185.53
2023-04-27T09:40:31.131Z,102185.88
2023-04-27T09:43:03.263Z,102189.34
2023-04-27T09:45:30.466Z,102177.72
2023-04-27T09:47:58.261Z,102179.88
2023-04-27T09:50:24.802Z,102179.75
2023-04-27T09:52:51.512Z,102186.03
2023-04-27T09:55:24.520Z,102173.50
2023-04-27T09:58:20.800Z,102169.78
2023-04-27T10:00:59.014Z,102172.41
2023-04-27T10:03:38.129Z,102180.47
2023-04-27T10:06:07.596Z,102168.00
2023-04-27T10:08:36.252Z,102163.97
2023-04-27T10:11:16.196Z,102166.72
2023-04-27T10:13:54.408Z,102163.03
2023-04-27T10:16:22.149Z,102173.59
2023-04-27T10:18:54.044Z,102170.13
2023-04-27T10:21:22.270Z,102168.06
2023-04-27T10:23:51.713Z,102171.13
2023-04-27T10:26:25.805Z,102173.38
2023-04-27T10:29:09.167Z,102173.59
2023-04-27T10:31:36.118Z,102160.97
2023-04-27T10:34:07.168Z,102164.69
2023-04-27T10:36:40.815Z,102161.38
2023-04-27T10:39:39.672Z,102163.31
2023-04-27T10:42:11.466Z,102158.16
2023-04-27T10:44:38.998Z,102161.19
2023-04-27T10:47:19.878Z,102167.84
2023-04-27T10:49:46.407Z,102158.81
2023-04-27T10:52:13.276Z,102155.28
2023-04-27T10:54:45.302Z,102151.19
2023-04-27T10:57:13.098Z,102149.81
2023-04-27T10:59:53.815Z,102150.28
2023-04-27T11:02:28.070Z,102146.72
2023-04-27T11:04:56.319Z,102140.47
2023-04-27T11:07:28.070Z,102138.69
2023-04-27T11:09:55.331Z,102139.00
2023-04-27T11:12:21.995Z,102129.56
2023-04-27T11:14:48.519Z,102138.88
2023-04-27T11:17:14.981Z,102122.84
2023-04-27T11:19:47.800Z,102122.59
2023-04-27T11:22:18.452Z,102123.97
2023-04-27T11:24:52.445Z,102108.97
2023-04-27T11:27:22.100Z,102117.38
2023-04-27T11:29:48.597Z,102111.50
2023-04-27T11:32:25.692Z,102108.28
2023-04-27T11:34:54.764Z,102105.81
2023-04-27T11:37:27.651Z,102108.06
2023-04-27T11:39:55.454Z,102108.06
2023-04-27T11:42:26.508Z,102097.56
2023-04-27T11:45:06.666Z,102099.56
2023-04-27T11:47:35.863Z,102100.66
2023-04-27T11:50:05.546Z,102103.59
2023-04-27T11:52:33.926Z,102102.75
2023-04-27T11:55:01.835Z,102103.28
2023-04-27T11:57:30.466Z,102098.25
2023-04-27T12:00:00.243Z,102095.81
2023-04-27T12:02:31.596Z,102089.22
2023-04-27T12:04:59.810Z,102079.97
2023-04-27T12:07:26.942Z,102089.00
2023-04-27T12:09:53.514Z,102083.78
2023-04-27T12:12:22.326Z,102089.91
2023-04-27T12:14:49.932Z,102087.66
2023-04-27T12:17:16.557Z,102088.94
2023-04-27T12:19:43.105Z,102087.81
2023-04-27T12:22:09.690Z,102078.81
2023-04-27T12:24:37.095Z,102088.06
2023-04-27T12:27:04.368Z,102084.69
2023-04-27T12:29:32.097Z,102076.38
2023-04-27T12:31:59.146Z,102067.28
2023-04-27T12:34:26.040Z,102068.97
2023-04-27T12:36:52.417Z,102069.81
2023-04-27T12:39:20.900Z,102062.69
2023-04-27T12:41:48.981Z,102069.63
2023-04-27T12:44:16.894Z,102054.22
2023-04-27T12:46:44.028Z,102051.16
2023-04-27T12:49:12.472Z,102052.34
2023-04-27T12:51:41.333Z,102057.50
2023-04-27T12:54:09.533Z,102058.94
2023-04-27T12:56:36.491Z,102048.94
2023-04-27T12:59:02.912Z,102053.22
2023-04-27T13:01:31.204Z,102054.00
2023-04-27T13:04:02.781Z,102050.78
2023-04-27T13:06:31.217Z,102047.19
2023-04-27T13:08:59.341Z,102036.16
2023-04-27T13:11:26.924Z,102036.66
2023-04-27T13:13:54.916Z,102034.09
2023-04-27T13:16:22.666Z,102049.03
2023-04-27T13:18:51.933Z,102046.13
2023-04-27T13:21:18.989Z,102035.13
2023-04-27T13:23:45.623Z,102021.31
2023-04-27T13:26:12.780Z,102028.38
2023-04-27T13:28:40.183Z,102028.34
2023-04-27T13:31:06.716Z,102013.97
2023-04-27T13:33:41.900Z,102001.28
2023-04-27T13:36:10.195Z,102008.03
2023-04-27T13:38:36.894Z,102011.69
2023-04-27T13:41:04.025Z,102006.41
2023-04-27T13:43:31.188Z,102002.00
2023-04-27T13:46:00.750Z,101994.19
2023-04-27T13:48:28.369Z,101990.09
2023-04-27T13:50:55.723Z,101988.75
2023-04-27T13:53:25.763Z,101988.53
2023-04-27T13:55:57.106Z,101995.47
2023-04-27T13:58:26.102Z,101991.91
2023-04-27T14:00:53.145Z,101992.22
2023-04-27T14:03:20.114Z,101986.72
2023-04-27T14:05:49.332Z,101990.03
2023-04-27T14:08:15.897Z,101978.19
2023-04-27T14:10:43.048Z,101974.03
2023-04-27T14:13:09.585Z,101971.16
2023-04-27T14:15:37.322Z,101962.59
2023-04-27T14:18:08.457Z,101962.78
2023-04-27T14:20:35.896Z,101958.44
2023-04-27T14:23:03.995Z,101966.38
2023-04-27T14:25:35.584Z,101950.25
2023-04-27T14:28:06.360Z,101957.69
2023-04-27T14:30:34.406Z,101957.88
2023-04-27T14:33:02.078Z,101948.28
2023-04-27T14:35:28.735Z,101949.50
2023-04-27T14:37:57.100Z,101942.63
2023-04-27T14:40:24.355Z,101941.16
2023-04-27T14:42:51.908Z,101945.16
2023-04-27T14:45:18.907Z,101946.56
2023-04-27T14:47:46.547Z,101941.69
2023-04-27T14:50:13.212Z,101941.81
2023-04-27T14:52:39.824Z,101936.81
2023-04-27T14:55:07.040Z,101933.59
2023-04-27T14:57:33.671Z,101926.34
2023-04-27T15:00:00.781Z,101919.97
2023-04-27T15:02:27.464Z,101913.66
2023-04-27T15:04:54.047Z,101914.41
2023-04-27T15:07:21.378Z,101912.41
2023-04-27T15:09:47.959Z,101911.13
2023-04-27T15:12:14.514Z,101914.91
2023-04-27T15:14:40.993Z,101918.38
2023-04-27T15:17:07.848Z,101919.69
2023-04-27T15:19:34.625Z,101913.94
2023-04-27T15:22:02.655Z,101903.97
2023-04-27T15:24:29.231Z,101908.47
2023-04-27T15:26:56.080Z,101908.59
2023-04-27T15:29:22.601Z,101905.38
2023-04-27T15:31:49.146Z,101901.81
2023-04-27T15:34:16.008Z,101895.78
2023-04-27T15:36:42.527Z,101892.59
2023-04-27T15:39:10.209Z,101894.09
2023-04-27T15:41:36.966Z,101899.28
2023-04-27T15:44:04.984Z,101897.41
2023-04-27T15:46:31.643Z,101892.97
2023-04-27T15:48:58.879Z,101882.94
2023-04-27T15:51:25.380Z,101881.63
2023-04-27T15:53:52.008Z,101873.81
2023-04-27T15:56:18.609Z,101866.84
2023-04-27T15:58:45.178Z,101876.53
2023-04-27T16:01:11.896Z,101873.44
2023-04-27T16:03:38.652Z,101869.47
2023-04-27T16:06:06.513Z,101871.94
2023-04-27T16:08:33.195Z,101865.53
2023-04-27T16:11:00.377Z,101867.22
2023-04-27T16:13:28.337Z,101859.44
2023-04-27T16:15:55.086Z,101848.81
2023-04-27T16:18:21.573Z,101859.16
2023-04-27T16:20:48.126Z,101848.63
2023-04-27T16:23:15.120Z,101843.91
2023-04-27T16:25:41.578Z,101842.59
2023-04-27T16:28:08.942Z,101843.78
2023-04-27T16:30:37.562Z,101840.97
2023-04-27T16:33:04.134Z,101835.22
2023-04-27T16:35:30.628Z,101837.50
2023-04-27T16:37:57.208Z,101836.56
2023-04-27T16:40:23.686Z,101829.13
2023-04-27T16:42:50.394Z,101826.38
2023-04-27T16:45:16.880Z,101825.66
2023-04-27T16:47:45.777Z,101818.34
2023-04-27T16:50:12.310Z,101805.41
2023-04-27T16:52:39.149Z,101800.88
2023-04-27T16:55:06.357Z,101792.50
2023-04-27T16:57:32.780Z,101783.25
2023-04-27T17:00:00.877Z,101791.50
2023-04-27T17:02:27.518Z,101798.38
2023-04-27T17:04:54.664Z,101792.06
2023-04-27T17:07:21.343Z,101793.84
2023-04-27T17:09:48.060Z,101790.38
2023-04-27T17:12:16.596Z,101792.50
2023-04-27T17:14:43.254Z,101795.44
2023-04-27T17:17:10.379Z,101806.19
2023-04-27T17:19:36.937Z,101815.19
2023-04-27T17:22:04.246Z,101815.38
2023-04-27T17:24:30.840Z,101809.72
2023-04-27T17:26:57.314Z,101806.88
2023-04-27T17:29:23.854Z,101808.25
2023-04-27T17:31:50.772Z,101806.13
2023-04-27T17:34:17.584Z,101812.59
2023-04-27T17:36:44.271Z,101811.47
2023-04-27T17:39:12.806Z,101811.75
2023-04-27T17:41:39.939Z,101806.66
2023-04-27T17:44:06.571Z,101802.69
2023-04-27T17:46:33.379Z,101803.94
2023-04-27T17:49:00.170Z,101810.97
2023-04-27T17:51:27.887Z,101808.66
2023-04-27T17:53:54.460Z,101805.47
2023-04-27T17:56:21.030Z,101802.91
2023-04-27T17:58:48.566Z,101802.16
2023-04-27T18:10:56.376Z,101798.84
2023-04-27T18:38:39.786Z,101790.88
2023-04-27T18:41:07.181Z,101795.69
2023-04-27T18:43:37.261Z,101783.72
2023-04-27T18:46:04.542Z,101795.28
2023-04-27T18:48:31.409Z,101794.59
2023-04-27T18:50:58.224Z,101800.94
2023-04-27T18:53:27.228Z,101800.25
2023-04-27T18:55:53.768Z,101785.59
2023-04-27T18:58:20.398Z,101791.00
2023-04-27T19:00:46.922Z,101791.06
2023-04-27T19:03:13.859Z,101790.38
2023-04-27T19:05:43.173Z,101786.06
2023-04-27T19:08:10.291Z,101787.16
2023-04-27T19:10:37.424Z,101778.41
2023-04-27T19:13:04.810Z,101776.88
2023-04-27T19:15:31.299Z,101783.19
2023-04-27T19:18:02.699Z,101784.28
2023-04-27T19:20:37.073Z,101787.03
2023-04-27T19:23:05.067Z,101775.78
2023-04-27T19:25:31.759Z,101785.41
2023-04-27T19:27:58.651Z,101778.63
2023-04-27T19:30:25.351Z,101776.03
2023-04-27T19:32:52.836Z,101763.78
2023-04-27T19:35:20.423Z,101764.63
2023-04-27T19:37:47.048Z,101763.00
2023-04-27T19:40:13.684Z,101769.16
2023-04-27T19:42:40.380Z,101765.06
2023-04-27T19:45:07.486Z,101776.41
2023-04-27T19:47:34.116Z,101776.56
2023-04-27T19:50:00.864Z,101774.84
2023-04-27T19:52:27.547Z,101773.94
2023-04-27T19:54:54.796Z,101762.69
2023-04-27T19:57:21.725Z,101767.91
2023-04-27T19:59:48.360Z,101761.19
2023-04-27T20:02:15.314Z,101762.06
2023-04-27T20:04:42.272Z,101766.50
2023-04-27T20:07:09.042Z,101759.75
2023-04-27T20:09:35.866Z,101758.19
2023-04-27T20:12:03.656Z,101759.09
2023-04-27T20:14:33.632Z,101758.34
2023-04-27T20:17:00.292Z,101759.25
2023-04-27T20:19:26.890Z,101751.53
2023-04-27T20:21:53.665Z,101746.31
2023-04-27T20:24:20.452Z,101736.75
2023-04-27T20:26:47.143Z,101738.59
2023-04-27T20:29:13.678Z,101736.19
2023-04-27T20:31:41.326Z,101737.94
2023-04-27T20:34:07.882Z,101732.72
2023-04-27T20:36:34.517Z,101733.78
2023-04-27T20:39:01.282Z,101724.41
2023-04-27T20:41:28.498Z,101726.22
2023-04-27T20:43:55.449Z,101724.53
2023-04-27T20:46:22.232Z,101718.44
2023-04-27T20:48:48.937Z,101717.75
2023-04-27T20:51:15.662Z,101712.66
2023-04-27T20:53:42.318Z,101702.34
2023-04-27T20:56:09.181Z,101703.34
2023-04-27T20:58:36.151Z,101701.72
2023-04-27T21:01:02.673Z,101699.25
2023-04-27T21:03:29.515Z,101700.31
2023-04-27T21:05:56.351Z,101696.16
2023-04-27T21:08:22.984Z,101693.69
2023-04-27T21:10:49.718Z,101692.88
2023-04-27T21:13:16.229Z,101683.41
2023-04-27T21:15:42.667Z,101680.88
2023-04-27T21:18:15.986Z,101686.25
2023-04-27T21:20:50.306Z,101676.88
2023-04-27T21:23:17.057Z,101663.94
2023-04-27T21:25:45.030Z,101661.31
2023-04-27T21:28:11.722Z,101663.22
2023-04-27T21:30:38.483Z,101665.00
2023-04-27T21:33:05.235Z,101652.84
2023-04-27T21:35:32.268Z,101651.22
2023-04-27T21:37:59.338Z,101652.84
2023-04-27T21:40:26.117Z,101654.59
2023-04-27T21:42:53.979Z,101642.31
2023-04-27T21:45:21.003Z,101641.38
2023-04-27T21:47:48.272Z,101641.63
2023-04-27T21:50:16.347Z,101633.00
2023-04-27T21:52:42.858Z,101620.06
2023-04-27T21:55:09.965Z,101614.84
2023-04-27T21:57:36.788Z,101612.31
2023-04-27T22:00:13.095Z,101600.09
2023-04-27T22:02:42.488Z,101601.06
2023-04-27T22:05:12.549Z,101596.78
2023-04-27T22:07:38.983Z,101596.97
2023-04-27T22:10:06.158Z,101603.91
2023-04-27T22:12:33.363Z,101593.44
2023-04-27T22:15:00.369Z,101591.59
2023-04-27T22:17:27.682Z,101596.97
2023-04-27T22:19:54.696Z,101585.66
2023-04-27T22:22:21.247Z,101597.13
2023-04-27T22:24:47.738Z,101589.44
2023-04-27T22:27:14.218Z,101582.56
2023-04-27T22:29:41.052Z,101578.34
2023-04-27T22:32:11.178Z,101575.81
2023-04-27T22:34:38.182Z,101573.34
2023-04-27T22:37:04.709Z,101578.63
2023-04-27T22:39:33.080Z,101561.25
2023-04-27T22:41:59.854Z,101565.56
2023-04-27T22:44:29.223Z,101561.25
2023-04-27T22:46:56.480Z,101548.41
2023-04-27T22:49:27.877Z,101550.94
2023-04-27T22:51:57.838Z,101553.56
2023-04-27T22:54:25.086Z,101550.94
2023-04-27T22:56:51.863Z,101546.72
2023-04-27T22:59:23.101Z,101543.34
2023-04-27T23:01:49.876Z,101543.34
2023-04-27T23:04:19.137Z,101546.72
2023-04-27T23:06:46.430Z,101547.72
2023-04-27T23:09:14.437Z,101545.31
2023-04-27T23:11:41.516Z,101556.72
2023-04-27T23:14:09.115Z,101557.59
2023-04-27T23:16:36.105Z,101553.22
2023-04-27T23:19:03.037Z,101540.31
2023-04-27T23:21:29.620Z,101534.44
2023-04-27T23:23:56.166Z,101532.88
2023-04-27T23:26:22.614Z,101536.56
2023-04-27T23:28:50.290Z,101533.81
2023-04-27T23:31:17.062Z,101529.44
2023-04-27T23:33:44.870Z,101519.22
2023-04-27T23:36:12.716Z,101516.66
2023-04-27T23:38:40.532Z,101503.69
2023-04-27T23:41:08.444Z,101502.88
2023-04-27T23:43:35.104Z,101501.13
2023-04-27T23:46:03.465Z,101479.41
2023-04-27T23:48:30.479Z,101472.50
2023-04-27T23:51:01.392Z,101474.44
2023-04-27T23:53:28.480Z,101468.53
2023-04-27T23:55:56.938Z,101468.66
2023-04-27T23:58:25.044Z,101462.75
